KGRB

Green Bay - Austin Straubel International Airport

Airport
ICAO code
KGRB
IATA Code
GRB
Summary
ICAO Region
NAM
ICAO Territory
Location

Ashwaubenon , Wisconsin

Serving
Green Bay
Elevation
695 ft
Coordinates
44° 29' 31" N , 88° 7' 39" W
KCC
Airport CFIT
Altimeter Temperature Error Correction
Metar
KGRB 250353Z AUTO 15003KT 10SM FEW026 FEW044 OVC060 17/15 A2965 RMK AO2 SLP041 T01670150

Description

Austin Straubel International Airport is a public use airport located in Brown County, Wisconsin, 7 nm southwest of the central business district of Green Bay.

Airport map

Aerial View

SKYbrary Partners:

Safety knowledge contributed by: